sensor_id;sensor_type;location;lat;lon;timestamp;P1;durP1;ratioP1;P2;durP2;ratioP2
14698;SDS011;7439;50.804;4.602;2023-05-10T00:01:19;134.67;;;128.67;;
14698;SDS011;7439;50.804;4.602;2023-05-10T00:03:47;134.33;;;128.10;;
14698;SDS011;7439;50.804;4.602;2023-05-10T00:06:14;129.33;;;122.93;;
14698;SDS011;7439;50.804;4.602;2023-05-10T00:08:41;129.20;;;123.03;;
14698;SDS011;7439;50.804;4.602;2023-05-10T00:11:08;121.43;;;115.33;;
14698;SDS011;7439;50.804;4.602;2023-05-10T00:13:36;121.73;;;115.97;;
14698;SDS011;7439;50.804;4.602;2023-05-10T00:16:05;127.57;;;121.00;;
14698;SDS011;7439;50.804;4.602;2023-05-10T00:18:35;121.67;;;115.43;;
14698;SDS011;7439;50.804;4.602;2023-05-10T00:21:07;120.80;;;114.87;;
14698;SDS011;7439;50.804;4.602;2023-05-10T00:23:34;122.03;;;116.53;;
14698;SDS011;7439;50.804;4.602;2023-05-10T00:26:04;124.03;;;117.53;;
14698;SDS011;7439;50.804;4.602;2023-05-10T00:28:31;127.03;;;121.00;;
14698;SDS011;7439;50.804;4.602;2023-05-10T00:30:58;130.30;;;123.60;;
14698;SDS011;7439;50.804;4.602;2023-05-10T00:33:27;120.30;;;114.63;;
14698;SDS011;7439;50.804;4.602;2023-05-10T00:35:54;119.17;;;113.13;;
14698;SDS011;7439;50.804;4.602;2023-05-10T00:38:21;118.97;;;112.63;;
14698;SDS011;7439;50.804;4.602;2023-05-10T00:40:48;121.77;;;115.97;;
14698;SDS011;7439;50.804;4.602;2023-05-10T00:43:15;128.57;;;122.40;;
14698;SDS011;7439;50.804;4.602;2023-05-10T00:45:43;134.43;;;128.00;;
14698;SDS011;7439;50.804;4.602;2023-05-10T00:48:10;129.80;;;123.23;;
14698;SDS011;7439;50.804;4.602;2023-05-10T00:50:39;128.70;;;122.37;;
14698;SDS011;7439;50.804;4.602;2023-05-10T00:53:09;141.37;;;134.87;;
14698;SDS011;7439;50.804;4.602;2023-05-10T00:55:37;144.40;;;137.70;;
14698;SDS011;7439;50.804;4.602;2023-05-10T00:58:05;144.10;;;137.50;;
14698;SDS011;7439;50.804;4.602;2023-05-10T01:00:35;145.00;;;137.73;;
14698;SDS011;7439;50.804;4.602;2023-05-10T01:03:04;147.53;;;140.73;;
14698;SDS011;7439;50.804;4.602;2023-05-10T01:05:31;148.70;;;142.13;;
14698;SDS011;7439;50.804;4.602;2023-05-10T01:07:59;150.70;;;143.97;;
14698;SDS011;7439;50.804;4.602;2023-05-10T01:10:27;152.20;;;145.17;;
14698;SDS011;7439;50.804;4.602;2023-05-10T01:12:55;153.70;;;146.17;;
14698;SDS011;7439;50.804;4.602;2023-05-10T01:15:22;151.00;;;144.13;;
14698;SDS011;7439;50.804;4.602;2023-05-10T01:17:50;147.03;;;140.27;;
14698;SDS011;7439;50.804;4.602;2023-05-10T01:20:18;145.23;;;138.53;;
14698;SDS011;7439;50.804;4.602;2023-05-10T01:22:50;143.80;;;137.30;;
14698;SDS011;7439;50.804;4.602;2023-05-10T01:25:40;137.57;;;130.97;;
14698;SDS011;7439;50.804;4.602;2023-05-10T01:34:54;126.80;;;120.53;;
14698;SDS011;7439;50.804;4.602;2023-05-10T01:37:30;128.53;;;122.40;;
14698;SDS011;7439;50.804;4.602;2023-05-10T01:40:03;128.07;;;121.87;;
14698;SDS011;7439;50.804;4.602;2023-05-10T01:42:38;126.80;;;120.50;;
14698;SDS011;7439;50.804;4.602;2023-05-10T01:45:14;127.13;;;120.93;;
14698;SDS011;7439;50.804;4.602;2023-05-10T01:47:53;127.53;;;121.07;;
14698;SDS011;7439;50.804;4.602;2023-05-10T01:50:29;128.43;;;122.60;;
14698;SDS011;7439;50.804;4.602;2023-05-10T01:52:57;136.03;;;128.80;;
14698;SDS011;7439;50.804;4.602;2023-05-10T01:55:28;134.77;;;128.00;;
14698;SDS011;7439;50.804;4.602;2023-05-10T01:58:00;136.97;;;130.40;;
14698;SDS011;7439;50.804;4.602;2023-05-10T02:00:31;147.47;;;140.17;;
14698;SDS011;7439;50.804;4.602;2023-05-10T02:03:01;140.47;;;134.17;;
14698;SDS011;7439;50.804;4.602;2023-05-10T02:05:32;151.10;;;143.73;;
14698;SDS011;7439;50.804;4.602;2023-05-10T02:08:01;150.17;;;142.83;;
14698;SDS011;7439;50.804;4.602;2023-05-10T02:10:32;149.90;;;142.13;;
14698;SDS011;7439;50.804;4.602;2023-05-10T02:13:00;148.50;;;141.07;;
14698;SDS011;7439;50.804;4.602;2023-05-10T02:15:29;141.33;;;134.63;;
14698;SDS011;7439;50.804;4.602;2023-05-10T02:17:57;142.30;;;135.73;;
14698;SDS011;7439;50.804;4.602;2023-05-10T02:20:28;142.53;;;135.80;;
14698;SDS011;7439;50.804;4.602;2023-05-10T02:22:58;138.83;;;131.87;;
14698;SDS011;7439;50.804;4.602;2023-05-10T02:25:25;145.03;;;138.20;;
14698;SDS011;7439;50.804;4.602;2023-05-10T02:27:55;143.17;;;136.17;;
14698;SDS011;7439;50.804;4.602;2023-05-10T02:30:23;140.43;;;133.50;;
14698;SDS011;7439;50.804;4.602;2023-05-10T02:32:51;144.20;;;137.00;;
14698;SDS011;7439;50.804;4.602;2023-05-10T02:35:19;148.50;;;141.57;;
14698;SDS011;7439;50.804;4.602;2023-05-10T02:37:50;148.53;;;141.63;;
14698;SDS011;7439;50.804;4.602;2023-05-10T02:40:18;146.63;;;139.57;;
14698;SDS011;7439;50.804;4.602;2023-05-10T02:42:47;155.37;;;148.03;;
14698;SDS011;7439;50.804;4.602;2023-05-10T02:45:18;153.50;;;146.30;;
14698;SDS011;7439;50.804;4.602;2023-05-10T02:47:48;161.33;;;153.67;;
14698;SDS011;7439;50.804;4.602;2023-05-10T02:50:15;151.50;;;144.03;;
14698;SDS011;7439;50.804;4.602;2023-05-10T02:52:44;151.10;;;143.93;;
14698;SDS011;7439;50.804;4.602;2023-05-10T02:55:15;154.93;;;147.77;;
14698;SDS011;7439;50.804;4.602;2023-05-10T02:57:46;158.37;;;150.93;;
14698;SDS011;7439;50.804;4.602;2023-05-10T03:00:18;158.87;;;151.57;;
14698;SDS011;7439;50.804;4.602;2023-05-10T03:02:46;154.23;;;146.73;;
14698;SDS011;7439;50.804;4.602;2023-05-10T03:05:13;159.83;;;152.23;;
14698;SDS011;7439;50.804;4.602;2023-05-10T03:07:40;164.67;;;156.93;;
14698;SDS011;7439;50.804;4.602;2023-05-10T03:10:08;156.33;;;148.80;;
14698;SDS011;7439;50.804;4.602;2023-05-10T03:12:45;155.50;;;148.17;;
14698;SDS011;7439;50.804;4.602;2023-05-10T03:15:25;146.77;;;139.93;;
14698;SDS011;7439;50.804;4.602;2023-05-10T03:18:04;146.27;;;139.47;;
14698;SDS011;7439;50.804;4.602;2023-05-10T03:20:35;149.70;;;142.57;;
14698;SDS011;7439;50.804;4.602;2023-05-10T03:23:07;155.23;;;148.13;;
14698;SDS011;7439;50.804;4.602;2023-05-10T03:25:39;152.13;;;145.10;;
14698;SDS011;7439;50.804;4.602;2023-05-10T03:28:11;153.37;;;146.37;;
14698;SDS011;7439;50.804;4.602;2023-05-10T03:30:40;160.23;;;152.83;;
14698;SDS011;7439;50.804;4.602;2023-05-10T03:33:09;160.40;;;153.00;;
14698;SDS011;7439;50.804;4.602;2023-05-10T03:35:38;157.03;;;149.57;;
14698;SDS011;7439;50.804;4.602;2023-05-10T03:38:05;163.90;;;155.50;;
14698;SDS011;7439;50.804;4.602;2023-05-10T03:40:32;163.40;;;155.70;;
14698;SDS011;7439;50.804;4.602;2023-05-10T03:42:59;156.30;;;148.67;;
14698;SDS011;7439;50.804;4.602;2023-05-10T03:45:28;167.73;;;159.23;;
14698;SDS011;7439;50.804;4.602;2023-05-10T03:47:56;165.93;;;157.83;;
14698;SDS011;7439;50.804;4.602;2023-05-10T03:50:23;150.50;;;143.20;;
14698;SDS011;7439;50.804;4.602;2023-05-10T03:52:51;155.50;;;147.83;;
14698;SDS011;7439;50.804;4.602;2023-05-10T03:55:18;149.27;;;142.17;;
14698;SDS011;7439;50.804;4.602;2023-05-10T03:57:45;152.57;;;145.30;;
14698;SDS011;7439;50.804;4.602;2023-05-10T04:00:14;153.97;;;146.47;;
14698;SDS011;7439;50.804;4.602;2023-05-10T04:02:43;159.30;;;151.87;;
14698;SDS011;7439;50.804;4.602;2023-05-10T04:05:13;150.93;;;143.93;;
14698;SDS011;7439;50.804;4.602;2023-05-10T04:07:40;151.53;;;144.43;;
14698;SDS011;7439;50.804;4.602;2023-05-10T04:10:12;155.53;;;148.47;;
14698;SDS011;7439;50.804;4.602;2023-05-10T04:12:39;150.27;;;143.23;;
14698;SDS011;7439;50.804;4.602;2023-05-10T04:15:06;152.40;;;145.60;;
14698;SDS011;7439;50.804;4.602;2023-05-10T04:17:34;148.20;;;141.63;;
14698;SDS011;7439;50.804;4.602;2023-05-10T04:20:04;143.33;;;136.87;;
14698;SDS011;7439;50.804;4.602;2023-05-10T04:22:33;156.27;;;148.93;;
14698;SDS011;7439;50.804;4.602;2023-05-10T04:25:00;173.13;;;165.40;;
14698;SDS011;7439;50.804;4.602;2023-05-10T04:27:27;254.13;;;243.80;;
14698;SDS011;7439;50.804;4.602;2023-05-10T04:29:54;296.57;;;285.10;;
14698;SDS011;7439;50.804;4.602;2023-05-10T04:32:21;323.83;;;311.33;;
14698;SDS011;7439;50.804;4.602;2023-05-10T04:34:48;332.73;;;319.87;;
14698;SDS011;7439;50.804;4.602;2023-05-10T04:37:17;348.93;;;335.50;;
14698;SDS011;7439;50.804;4.602;2023-05-10T04:39:44;342.47;;;329.33;;
14698;SDS011;7439;50.804;4.602;2023-05-10T04:42:12;358.40;;;343.97;;
14698;SDS011;7439;50.804;4.602;2023-05-10T04:44:40;355.43;;;341.30;;
14698;SDS011;7439;50.804;4.602;2023-05-10T04:47:08;344.30;;;330.77;;
14698;SDS011;7439;50.804;4.602;2023-05-10T04:49:36;360.73;;;347.03;;
14698;SDS011;7439;50.804;4.602;2023-05-10T04:52:03;367.33;;;353.70;;
14698;SDS011;7439;50.804;4.602;2023-05-10T04:54:32;371.87;;;357.90;;
14698;SDS011;7439;50.804;4.602;2023-05-10T04:56:59;361.53;;;347.13;;
14698;SDS011;7439;50.804;4.602;2023-05-10T04:59:40;375.20;;;360.03;;
14698;SDS011;7439;50.804;4.602;2023-05-10T05:02:08;370.67;;;355.43;;
14698;SDS011;7439;50.804;4.602;2023-05-10T05:04:36;346.43;;;332.70;;
14698;SDS011;7439;50.804;4.602;2023-05-10T05:07:03;341.03;;;327.10;;
14698;SDS011;7439;50.804;4.602;2023-05-10T05:09:30;334.57;;;321.33;;
14698;SDS011;7439;50.804;4.602;2023-05-10T05:11:59;325.30;;;312.07;;
14698;SDS011;7439;50.804;4.602;2023-05-10T05:14:26;315.77;;;303.03;;
14698;SDS011;7439;50.804;4.602;2023-05-10T05:16:53;311.83;;;298.97;;
14698;SDS011;7439;50.804;4.602;2023-05-10T05:19:20;300.07;;;287.63;;
14698;SDS011;7439;50.804;4.602;2023-05-10T05:21:47;294.73;;;282.13;;
14698;SDS011;7439;50.804;4.602;2023-05-10T05:24:15;300.60;;;287.73;;
14698;SDS011;7439;50.804;4.602;2023-05-10T05:26:42;298.37;;;285.30;;
14698;SDS011;7439;50.804;4.602;2023-05-10T05:29:10;296.17;;;283.47;;
14698;SDS011;7439;50.804;4.602;2023-05-10T05:31:37;302.97;;;289.47;;
14698;SDS011;7439;50.804;4.602;2023-05-10T05:34:04;290.33;;;277.23;;
14698;SDS011;7439;50.804;4.602;2023-05-10T05:36:31;289.90;;;276.63;;
14698;SDS011;7439;50.804;4.602;2023-05-10T05:39:03;279.43;;;266.97;;
14698;SDS011;7439;50.804;4.602;2023-05-10T05:41:30;284.00;;;271.37;;
14698;SDS011;7439;50.804;4.602;2023-05-10T05:43:57;267.33;;;256.07;;
14698;SDS011;7439;50.804;4.602;2023-05-10T05:46:26;263.40;;;252.43;;
14698;SDS011;7439;50.804;4.602;2023-05-10T05:48:53;260.27;;;249.93;;
14698;SDS011;7439;50.804;4.602;2023-05-10T05:51:20;243.03;;;233.77;;
14698;SDS011;7439;50.804;4.602;2023-05-10T05:53:47;241.40;;;232.40;;
14698;SDS011;7439;50.804;4.602;2023-05-10T05:56:14;236.80;;;228.20;;
14698;SDS011;7439;50.804;4.602;2023-05-10T05:58:42;227.60;;;219.00;;
14698;SDS011;7439;50.804;4.602;2023-05-10T06:01:09;234.67;;;226.03;;
14698;SDS011;7439;50.804;4.602;2023-05-10T06:03:38;238.83;;;229.97;;
14698;SDS011;7439;50.804;4.602;2023-05-10T06:06:05;252.30;;;243.17;;
14698;SDS011;7439;50.804;4.602;2023-05-10T06:08:32;226.23;;;218.17;;
14698;SDS011;7439;50.804;4.602;2023-05-10T06:11:00;229.90;;;221.53;;
14698;SDS011;7439;50.804;4.602;2023-05-10T06:13:29;227.13;;;219.13;;
14698;SDS011;7439;50.804;4.602;2023-05-10T06:15:57;208.37;;;200.80;;
14698;SDS011;7439;50.804;4.602;2023-05-10T06:18:24;211.37;;;203.87;;
14698;SDS011;7439;50.804;4.602;2023-05-10T06:20:53;208.73;;;201.33;;
14698;SDS011;7439;50.804;4.602;2023-05-10T06:23:20;199.73;;;192.43;;
14698;SDS011;7439;50.804;4.602;2023-05-10T06:25:47;190.93;;;184.03;;
14698;SDS011;7439;50.804;4.602;2023-05-10T06:28:14;187.53;;;180.53;;
14698;SDS011;7439;50.804;4.602;2023-05-10T06:30:41;185.13;;;178.27;;
14698;SDS011;7439;50.804;4.602;2023-05-10T06:33:09;187.37;;;180.67;;
14698;SDS011;7439;50.804;4.602;2023-05-10T06:35:41;185.83;;;179.23;;
14698;SDS011;7439;50.804;4.602;2023-05-10T06:38:09;184.53;;;177.83;;
14698;SDS011;7439;50.804;4.602;2023-05-10T06:40:36;181.77;;;174.97;;
14698;SDS011;7439;50.804;4.602;2023-05-10T06:43:07;178.93;;;172.43;;
14698;SDS011;7439;50.804;4.602;2023-05-10T06:45:34;173.93;;;167.63;;
14698;SDS011;7439;50.804;4.602;2023-05-10T06:48:02;178.67;;;172.27;;
14698;SDS011;7439;50.804;4.602;2023-05-10T06:50:29;173.63;;;167.13;;
14698;SDS011;7439;50.804;4.602;2023-05-10T06:52:56;173.27;;;166.77;;
14698;SDS011;7439;50.804;4.602;2023-05-10T06:55:25;178.43;;;171.87;;
14698;SDS011;7439;50.804;4.602;2023-05-10T06:57:52;176.73;;;170.17;;
14698;SDS011;7439;50.804;4.602;2023-05-10T07:00:19;183.00;;;176.10;;
14698;SDS011;7439;50.804;4.602;2023-05-10T07:02:46;200.50;;;193.23;;
14698;SDS011;7439;50.804;4.602;2023-05-10T07:05:14;200.17;;;192.97;;
14698;SDS011;7439;50.804;4.602;2023-05-10T07:07:41;203.63;;;196.33;;
14698;SDS011;7439;50.804;4.602;2023-05-10T07:10:09;213.40;;;205.70;;
14698;SDS011;7439;50.804;4.602;2023-05-10T07:12:37;220.07;;;212.37;;
14698;SDS011;7439;50.804;4.602;2023-05-10T07:15:05;210.13;;;202.63;;
14698;SDS011;7439;50.804;4.602;2023-05-10T07:17:33;213.67;;;206.23;;
14698;SDS011;7439;50.804;4.602;2023-05-10T07:20:00;215.57;;;207.97;;
14698;SDS011;7439;50.804;4.602;2023-05-10T07:22:28;232.93;;;224.83;;
14698;SDS011;7439;50.804;4.602;2023-05-10T07:24:56;262.67;;;253.47;;
14698;SDS011;7439;50.804;4.602;2023-05-10T07:27:23;271.73;;;262.43;;
14698;SDS011;7439;50.804;4.602;2023-05-10T07:29:51;300.70;;;290.27;;
14698;SDS011;7439;50.804;4.602;2023-05-10T07:32:19;299.67;;;289.47;;
14698;SDS011;7439;50.804;4.602;2023-05-10T07:34:47;277.17;;;267.47;;
14698;SDS011;7439;50.804;4.602;2023-05-10T07:37:17;267.47;;;258.10;;
14698;SDS011;7439;50.804;4.602;2023-05-10T07:39:44;259.90;;;250.80;;
14698;SDS011;7439;50.804;4.602;2023-05-10T07:42:11;247.17;;;238.57;;
14698;SDS011;7439;50.804;4.602;2023-05-10T07:44:39;245.10;;;236.27;;
14698;SDS011;7439;50.804;4.602;2023-05-10T07:47:08;231.50;;;223.23;;
14698;SDS011;7439;50.804;4.602;2023-05-10T07:49:36;229.67;;;221.27;;
14698;SDS011;7439;50.804;4.602;2023-05-10T07:52:04;237.87;;;229.10;;
14698;SDS011;7439;50.804;4.602;2023-05-10T07:54:32;239.27;;;230.10;;
14698;SDS011;7439;50.804;4.602;2023-05-10T07:57:09;232.40;;;223.77;;
14698;SDS011;7439;50.804;4.602;2023-05-10T07:59:43;222.03;;;213.70;;
14698;SDS011;7439;50.804;4.602;2023-05-10T08:02:15;225.07;;;216.67;;
14698;SDS011;7439;50.804;4.602;2023-05-10T08:04:48;222.93;;;214.47;;
14698;SDS011;7439;50.804;4.602;2023-05-10T08:07:32;234.60;;;225.87;;
14698;SDS011;7439;50.804;4.602;2023-05-10T08:10:00;235.90;;;227.03;;
14698;SDS011;7439;50.804;4.602;2023-05-10T08:12:27;227.17;;;218.50;;
14698;SDS011;7439;50.804;4.602;2023-05-10T08:14:54;229.57;;;220.77;;
14698;SDS011;7439;50.804;4.602;2023-05-10T08:17:22;245.10;;;235.97;;
14698;SDS011;7439;50.804;4.602;2023-05-10T08:19:49;283.37;;;273.03;;
14698;SDS011;7439;50.804;4.602;2023-05-10T08:22:16;292.10;;;281.30;;
14698;SDS011;7439;50.804;4.602;2023-05-10T08:24:43;289.83;;;279.27;;
14698;SDS011;7439;50.804;4.602;2023-05-10T08:27:11;284.80;;;274.43;;
14698;SDS011;7439;50.804;4.602;2023-05-10T08:29:38;280.87;;;270.70;;
14698;SDS011;7439;50.804;4.602;2023-05-10T08:32:05;287.00;;;276.87;;
14698;SDS011;7439;50.804;4.602;2023-05-10T08:34:34;262.27;;;252.90;;
14698;SDS011;7439;50.804;4.602;2023-05-10T08:37:01;257.40;;;248.00;;
14698;SDS011;7439;50.804;4.602;2023-05-10T08:39:28;280.67;;;270.67;;
14698;SDS011;7439;50.804;4.602;2023-05-10T08:41:58;276.13;;;266.13;;
14698;SDS011;7439;50.804;4.602;2023-05-10T08:44:27;274.53;;;264.67;;
14698;SDS011;7439;50.804;4.602;2023-05-10T08:46:56;274.57;;;264.47;;
14698;SDS011;7439;50.804;4.602;2023-05-10T08:49:25;276.37;;;266.67;;
14698;SDS011;7439;50.804;4.602;2023-05-10T08:51:58;284.13;;;273.93;;
14698;SDS011;7439;50.804;4.602;2023-05-10T08:54:29;277.13;;;267.47;;
14698;SDS011;7439;50.804;4.602;2023-05-10T08:56:57;280.17;;;270.50;;
14698;SDS011;7439;50.804;4.602;2023-05-10T08:59:24;281.50;;;271.70;;
14698;SDS011;7439;50.804;4.602;2023-05-10T09:01:52;290.17;;;280.07;;
14698;SDS011;7439;50.804;4.602;2023-05-10T09:04:22;272.87;;;263.23;;
14698;SDS011;7439;50.804;4.602;2023-05-10T09:06:49;287.07;;;277.20;;
14698;SDS011;7439;50.804;4.602;2023-05-10T09:09:18;298.40;;;287.90;;
14698;SDS011;7439;50.804;4.602;2023-05-10T09:11:47;301.83;;;291.47;;
14698;SDS011;7439;50.804;4.602;2023-05-10T09:14:14;307.00;;;296.47;;
14698;SDS011;7439;50.804;4.602;2023-05-10T09:16:42;317.03;;;306.13;;
14698;SDS011;7439;50.804;4.602;2023-05-10T09:19:09;305.73;;;295.07;;
14698;SDS011;7439;50.804;4.602;2023-05-10T09:21:37;294.73;;;284.63;;
14698;SDS011;7439;50.804;4.602;2023-05-10T09:24:05;290.03;;;280.17;;
14698;SDS011;7439;50.804;4.602;2023-05-10T09:26:34;266.00;;;257.00;;
14698;SDS011;7439;50.804;4.602;2023-05-10T09:29:02;260.17;;;251.23;;
14698;SDS011;7439;50.804;4.602;2023-05-10T09:31:46;234.13;;;226.03;;
14698;SDS011;7439;50.804;4.602;2023-05-10T09:34:16;224.77;;;216.77;;
14698;SDS011;7439;50.804;4.602;2023-05-10T09:36:51;216.47;;;208.90;;
14698;SDS011;7439;50.804;4.602;2023-05-10T09:39:19;201.87;;;194.60;;
14698;SDS011;7439;50.804;4.602;2023-05-10T09:41:48;192.00;;;185.10;;
14698;SDS011;7439;50.804;4.602;2023-05-10T09:44:18;188.57;;;181.77;;
14698;SDS011;7439;50.804;4.602;2023-05-10T09:46:49;182.20;;;175.60;;
14698;SDS011;7439;50.804;4.602;2023-05-10T09:49:20;177.90;;;171.40;;
14698;SDS011;7439;50.804;4.602;2023-05-10T09:51:47;189.60;;;182.80;;
14698;SDS011;7439;50.804;4.602;2023-05-10T09:54:28;196.13;;;189.03;;
14698;SDS011;7439;50.804;4.602;2023-05-10T09:56:57;194.07;;;187.17;;
14698;SDS011;7439;50.804;4.602;2023-05-10T09:59:24;211.30;;;203.90;;
14698;SDS011;7439;50.804;4.602;2023-05-10T10:01:53;206.67;;;199.37;;
14698;SDS011;7439;50.804;4.602;2023-05-10T10:04:22;191.73;;;184.77;;
14698;SDS011;7439;50.804;4.602;2023-05-10T10:06:57;196.73;;;189.77;;
14698;SDS011;7439;50.804;4.602;2023-05-10T10:09:25;201.80;;;194.60;;
14698;SDS011;7439;50.804;4.602;2023-05-10T10:11:53;185.57;;;178.90;;
14698;SDS011;7439;50.804;4.602;2023-05-10T10:14:22;195.67;;;188.60;;
14698;SDS011;7439;50.804;4.602;2023-05-10T10:16:50;191.03;;;184.23;;
14698;SDS011;7439;50.804;4.602;2023-05-10T10:19:18;194.63;;;187.63;;
14698;SDS011;7439;50.804;4.602;2023-05-10T10:21:46;200.83;;;193.73;;
14698;SDS011;7439;50.804;4.602;2023-05-10T10:24:13;207.80;;;200.50;;
14698;SDS011;7439;50.804;4.602;2023-05-10T10:26:40;201.33;;;194.17;;
14698;SDS011;7439;50.804;4.602;2023-05-10T10:29:11;181.67;;;175.07;;
14698;SDS011;7439;50.804;4.602;2023-05-10T10:31:47;163.60;;;157.53;;
14698;SDS011;7439;50.804;4.602;2023-05-10T10:34:22;166.37;;;160.27;;
14698;SDS011;7439;50.804;4.602;2023-05-10T10:36:53;171.83;;;165.50;;
14698;SDS011;7439;50.804;4.602;2023-05-10T10:39:21;177.97;;;171.37;;
14698;SDS011;7439;50.804;4.602;2023-05-10T10:41:51;176.93;;;170.57;;
14698;SDS011;7439;50.804;4.602;2023-05-10T10:44:25;192.10;;;185.30;;
14698;SDS011;7439;50.804;4.602;2023-05-10T10:47:02;189.83;;;183.07;;
14698;SDS011;7439;50.804;4.602;2023-05-10T10:49:36;206.27;;;198.97;;
14698;SDS011;7439;50.804;4.602;2023-05-10T10:52:23;223.57;;;215.57;;
14698;SDS011;7439;50.804;4.602;2023-05-10T10:54:56;220.37;;;212.73;;
14698;SDS011;7439;50.804;4.602;2023-05-10T10:57:26;247.63;;;239.27;;
14698;SDS011;7439;50.804;4.602;2023-05-10T11:02:55;244.23;;;236.00;;
14698;SDS011;7439;50.804;4.602;2023-05-10T11:05:25;247.07;;;238.67;;
14698;SDS011;7439;50.804;4.602;2023-05-10T11:08:20;249.20;;;240.73;;
14698;SDS011;7439;50.804;4.602;2023-05-10T11:11:01;256.23;;;247.63;;
14698;SDS011;7439;50.804;4.602;2023-05-10T11:13:32;268.07;;;258.83;;
14698;SDS011;7439;50.804;4.602;2023-05-10T11:16:11;273.77;;;264.50;;
14698;SDS011;7439;50.804;4.602;2023-05-10T11:18:41;276.10;;;266.87;;
14698;SDS011;7439;50.804;4.602;2023-05-10T11:21:27;285.13;;;275.53;;
14698;SDS011;7439;50.804;4.602;2023-05-10T11:23:54;286.70;;;276.97;;
14698;SDS011;7439;50.804;4.602;2023-05-10T11:26:23;302.63;;;292.43;;
14698;SDS011;7439;50.804;4.602;2023-05-10T11:28:51;296.37;;;286.40;;
14698;SDS011;7439;50.804;4.602;2023-05-10T11:31:21;356.07;;;344.10;;
14698;SDS011;7439;50.804;4.602;2023-05-10T11:33:53;325.90;;;314.83;;
14698;SDS011;7439;50.804;4.602;2023-05-10T11:36:23;367.17;;;354.77;;
14698;SDS011;7439;50.804;4.602;2023-05-10T11:38:52;381.20;;;368.47;;
14698;SDS011;7439;50.804;4.602;2023-05-10T11:41:20;388.87;;;375.80;;
14698;SDS011;7439;50.804;4.602;2023-05-10T11:43:49;420.37;;;405.87;;
14698;SDS011;7439;50.804;4.602;2023-05-10T11:46:18;430.77;;;416.07;;
14698;SDS011;7439;50.804;4.602;2023-05-10T11:48:46;439.17;;;424.23;;
14698;SDS011;7439;50.804;4.602;2023-05-10T11:51:19;432.40;;;417.73;;
14698;SDS011;7439;50.804;4.602;2023-05-10T11:53:47;487.47;;;470.73;;
14698;SDS011;7439;50.804;4.602;2023-05-10T11:56:16;477.33;;;460.93;;
14698;SDS011;7439;50.804;4.602;2023-05-10T11:58:43;497.13;;;479.93;;
14698;SDS011;7439;50.804;4.602;2023-05-10T12:01:12;509.63;;;491.87;;
14698;SDS011;7439;50.804;4.602;2023-05-10T12:03:39;510.53;;;492.87;;
14698;SDS011;7439;50.804;4.602;2023-05-10T12:06:06;544.07;;;524.77;;
14698;SDS011;7439;50.804;4.602;2023-05-10T12:08:36;562.27;;;542.03;;
14698;SDS011;7439;50.804;4.602;2023-05-10T12:11:06;561.80;;;541.50;;
14698;SDS011;7439;50.804;4.602;2023-05-10T12:13:37;547.67;;;528.03;;
14698;SDS011;7439;50.804;4.602;2023-05-10T12:16:15;587.90;;;566.30;;
14698;SDS011;7439;50.804;4.602;2023-05-10T12:18:44;547.37;;;527.60;;
14698;SDS011;7439;50.804;4.602;2023-05-10T12:21:12;585.10;;;563.50;;
14698;SDS011;7439;50.804;4.602;2023-05-10T12:23:40;565.87;;;545.30;;
14698;SDS011;7439;50.804;4.602;2023-05-10T12:26:08;593.80;;;571.40;;
14698;SDS011;7439;50.804;4.602;2023-05-10T12:28:36;580.53;;;558.07;;
14698;SDS011;7439;50.804;4.602;2023-05-10T12:31:05;559.93;;;538.83;;
14698;SDS011;7439;50.804;4.602;2023-05-10T12:33:35;516.67;;;497.53;;
14698;SDS011;7439;50.804;4.602;2023-05-10T12:36:04;490.80;;;472.77;;
14698;SDS011;7439;50.804;4.602;2023-05-10T12:38:32;500.00;;;480.93;;
14698;SDS011;7439;50.804;4.602;2023-05-10T12:41:04;533.57;;;512.37;;
14698;SDS011;7439;50.804;4.602;2023-05-10T12:43:33;443.30;;;426.20;;
14698;SDS011;7439;50.804;4.602;2023-05-10T12:46:04;427.40;;;410.83;;
14698;SDS011;7439;50.804;4.602;2023-05-10T12:48:34;370.80;;;356.57;;
14698;SDS011;7439;50.804;4.602;2023-05-10T12:51:02;339.40;;;326.67;;
14698;SDS011;7439;50.804;4.602;2023-05-10T12:53:30;285.30;;;274.90;;
14698;SDS011;7439;50.804;4.602;2023-05-10T12:55:57;287.17;;;276.70;;
14698;SDS011;7439;50.804;4.602;2023-05-10T12:58:26;256.60;;;247.43;;
14698;SDS011;7439;50.804;4.602;2023-05-10T13:00:53;208.43;;;200.87;;
14698;SDS011;7439;50.804;4.602;2023-05-10T13:03:21;224.07;;;215.77;;
14698;SDS011;7439;50.804;4.602;2023-05-10T13:05:48;240.53;;;231.93;;
14698;SDS011;7439;50.804;4.602;2023-05-10T13:08:15;194.57;;;187.53;;
14698;SDS011;7439;50.804;4.602;2023-05-10T13:10:43;184.47;;;177.77;;
14698;SDS011;7439;50.804;4.602;2023-05-10T13:13:10;166.33;;;160.20;;
14698;SDS011;7439;50.804;4.602;2023-05-10T13:15:39;150.60;;;145.03;;
14698;SDS011;7439;50.804;4.602;2023-05-10T13:18:06;138.07;;;132.93;;
14698;SDS011;7439;50.804;4.602;2023-05-10T13:20:33;117.23;;;112.87;;
14698;SDS011;7439;50.804;4.602;2023-05-10T13:23:00;102.50;;;98.33;;
14698;SDS011;7439;50.804;4.602;2023-05-10T13:25:27;86.30;;;82.90;;
14698;SDS011;7439;50.804;4.602;2023-05-10T13:27:55;69.37;;;66.67;;
14698;SDS011;7439;50.804;4.602;2023-05-10T13:30:22;80.47;;;77.27;;
14698;SDS011;7439;50.804;4.602;2023-05-10T13:32:51;75.07;;;72.17;;
14698;SDS011;7439;50.804;4.602;2023-05-10T13:35:18;86.13;;;82.83;;
14698;SDS011;7439;50.804;4.602;2023-05-10T13:37:47;77.17;;;74.17;;
14698;SDS011;7439;50.804;4.602;2023-05-10T13:40:15;74.37;;;71.47;;
14698;SDS011;7439;50.804;4.602;2023-05-10T13:42:42;70.73;;;67.93;;
14698;SDS011;7439;50.804;4.602;2023-05-10T13:45:09;65.67;;;63.07;;
14698;SDS011;7439;50.804;4.602;2023-05-10T13:47:38;59.60;;;57.20;;
14698;SDS011;7439;50.804;4.602;2023-05-10T13:50:07;52.13;;;50.03;;
14698;SDS011;7439;50.804;4.602;2023-05-10T13:52:34;47.10;;;45.20;;
14698;SDS011;7439;50.804;4.602;2023-05-10T13:55:01;52.30;;;50.10;;
14698;SDS011;7439;50.804;4.602;2023-05-10T13:57:28;42.97;;;41.13;;
14698;SDS011;7439;50.804;4.602;2023-05-10T13:59:56;36.57;;;34.90;;
14698;SDS011;7439;50.804;4.602;2023-05-10T14:02:23;29.80;;;28.17;;
14698;SDS011;7439;50.804;4.602;2023-05-10T14:04:52;26.03;;;24.77;;
14698;SDS011;7439;50.804;4.602;2023-05-10T14:07:21;21.10;;;20.07;;
14698;SDS011;7439;50.804;4.602;2023-05-10T14:09:48;17.80;;;16.80;;
14698;SDS011;7439;50.804;4.602;2023-05-10T14:12:15;12.27;;;11.57;;
14698;SDS011;7439;50.804;4.602;2023-05-10T14:14:42;11.60;;;11.00;;
14698;SDS011;7439;50.804;4.602;2023-05-10T14:17:10;10.70;;;10.00;;
14698;SDS011;7439;50.804;4.602;2023-05-10T14:19:37;11.30;;;10.60;;
14698;SDS011;7439;50.804;4.602;2023-05-10T14:22:04;10.80;;;10.07;;
14698;SDS011;7439;50.804;4.602;2023-05-10T14:24:32;11.07;;;10.37;;
14698;SDS011;7439;50.804;4.602;2023-05-10T14:26:59;11.37;;;10.60;;
14698;SDS011;7439;50.804;4.602;2023-05-10T14:29:26;11.87;;;11.27;;
14698;SDS011;7439;50.804;4.602;2023-05-10T14:31:54;11.63;;;10.97;;